createdAt,value
2018-04-19T00:01:13.244Z,10.50
2018-04-19T00:03:40.810Z,10.60
2018-04-19T00:06:08.495Z,10.60
2018-04-19T00:08:36.106Z,10.50
2018-04-19T00:11:03.729Z,10.50
2018-04-19T00:13:31.324Z,10.50
2018-04-19T00:15:58.889Z,10.50
2018-04-19T00:18:26.506Z,10.40
2018-04-19T00:20:54.031Z,10.40
2018-04-19T00:23:21.626Z,10.40
2018-04-19T00:25:49.265Z,10.30
2018-04-19T00:28:16.860Z,10.30
2018-04-19T00:30:44.430Z,10.30
2018-04-19T00:33:11.996Z,10.30
2018-04-19T00:35:39.643Z,10.20
2018-04-19T00:38:07.940Z,10.20
2018-04-19T00:40:35.519Z,10.20
2018-04-19T00:43:03.829Z,10.20
2018-04-19T00:45:31.387Z,10.10
2018-04-19T00:47:58.955Z,10.20
2018-04-19T00:50:26.941Z,10.20
2018-04-19T00:53:12.964Z,10.10
2018-04-19T00:55:40.558Z,10.10
2018-04-19T00:58:08.083Z,10.10
2018-04-19T01:00:35.704Z,10.00
2018-04-19T01:03:03.316Z,10.00
2018-04-19T01:05:30.913Z,9.90
2018-04-19T01:07:58.537Z,9.90
2018-04-19T01:10:26.197Z,9.90
2018-04-19T01:12:53.797Z,9.80
2018-04-19T01:15:21.413Z,9.70
2018-04-19T01:17:49.042Z,9.70
2018-04-19T01:20:18.073Z,9.60
2018-04-19T01:22:45.621Z,9.50
2018-04-19T01:25:13.153Z,9.50
2018-04-19T01:27:40.695Z,9.50
2018-04-19T01:30:08.227Z,9.40
2018-04-19T01:32:35.823Z,9.40
2018-04-19T01:35:04.131Z,9.40
2018-04-19T01:37:31.813Z,9.30
2018-04-19T01:39:59.363Z,9.40
2018-04-19T01:42:26.993Z,9.30
2018-04-19T01:44:54.601Z,9.30
2018-04-19T01:47:22.179Z,9.30
2018-04-19T01:49:49.735Z,9.30
2018-04-19T01:52:17.363Z,9.30
2018-04-19T01:54:44.993Z,9.20
2018-04-19T01:57:13.410Z,9.20
2018-04-19T01:59:40.959Z,9.20
2018-04-19T02:02:08.553Z,9.10
2018-04-19T02:04:36.153Z,9.10
2018-04-19T02:07:03.805Z,9.10
2018-04-19T02:09:31.328Z,9.00
2018-04-19T02:11:58.941Z,9.00
2018-04-19T02:14:26.522Z,9.00
2018-04-19T02:16:54.187Z,9.00
2018-04-19T02:19:22.443Z,8.90
2018-04-19T02:21:50.781Z,8.90
2018-04-19T02:24:18.327Z,8.90
2018-04-19T02:26:45.933Z,8.90
2018-04-19T02:29:13.471Z,8.90
2018-04-19T02:31:41.793Z,8.90
2018-04-19T02:34:09.346Z,8.80
2018-04-19T02:36:37.687Z,8.90
2018-04-19T02:39:05.261Z,8.80
2018-04-19T02:41:32.821Z,8.90
2018-04-19T02:44:00.437Z,8.80
2018-04-19T02:46:27.941Z,8.80
2018-04-19T02:48:55.552Z,8.80
2018-04-19T02:51:23.105Z,8.80
2018-04-19T02:53:50.662Z,8.80
2018-04-19T02:56:18.229Z,8.70
2018-04-19T02:58:45.837Z,8.70
2018-04-19T03:01:13.656Z,8.60
2018-04-19T03:03:41.205Z,8.60
2018-04-19T03:06:08.730Z,8.50
2018-04-19T03:08:36.332Z,8.50
2018-04-19T03:11:03.867Z,8.50
2018-04-19T03:13:32.216Z,8.40
2018-04-19T03:15:59.734Z,8.40
2018-04-19T03:18:27.320Z,8.40
2018-04-19T03:20:55.648Z,8.40
2018-04-19T03:23:24.128Z,8.40
2018-04-19T03:25:51.668Z,8.30
2018-04-19T03:28:19.207Z,8.30
2018-04-19T03:30:46.821Z,8.30
2018-04-19T03:33:15.247Z,8.30
2018-04-19T03:35:42.844Z,8.30
2018-04-19T03:38:11.156Z,8.30
2018-04-19T03:40:38.729Z,8.20
2018-04-19T03:43:07.049Z,8.30
2018-04-19T03:45:34.690Z,8.20
2018-04-19T03:48:02.212Z,8.20
2018-04-19T03:50:29.826Z,8.20
2018-04-19T03:52:58.179Z,8.20
2018-04-19T03:55:25.834Z,8.10
2018-04-19T03:57:53.439Z,8.20
2018-04-19T04:00:21.079Z,8.20
2018-04-19T04:02:48.638Z,8.20
2018-04-19T04:05:16.201Z,8.20
2018-04-19T04:07:44.516Z,8.20
2018-04-19T04:10:14.973Z,8.10
2018-04-19T04:12:42.616Z,8.20
2018-04-19T04:15:10.192Z,8.20
2018-04-19T04:17:49.660Z,8.20
2018-04-19T04:20:29.027Z,8.30
2018-04-19T04:23:09.253Z,8.30
2018-04-19T04:25:36.805Z,8.20
2018-04-19T04:28:04.350Z,8.30
2018-04-19T04:30:31.896Z,8.40
2018-04-19T04:32:59.474Z,8.40
2018-04-19T04:35:27.085Z,8.40
2018-04-19T04:37:54.693Z,8.40
2018-04-19T04:40:22.273Z,8.40
2018-04-19T04:42:49.864Z,8.50
2018-04-19T04:45:18.177Z,8.50
2018-04-19T04:47:45.733Z,8.50
2018-04-19T04:50:13.273Z,8.60
2018-04-19T04:52:40.852Z,8.60
2018-04-19T04:55:08.565Z,8.70
2018-04-19T04:57:36.120Z,8.80
2018-04-19T05:00:03.732Z,8.80
2018-04-19T05:02:32.047Z,9.00
2018-04-19T05:04:59.624Z,8.90
2018-04-19T05:07:28.012Z,9.10
2018-04-19T05:09:55.573Z,9.10
2018-04-19T05:12:23.892Z,9.30
2018-04-19T05:14:51.538Z,9.20
2018-04-19T05:17:19.096Z,9.30
2018-04-19T05:19:46.686Z,9.40
2018-04-19T05:22:14.231Z,9.50
2018-04-19T05:24:41.877Z,9.60
2018-04-19T05:27:09.462Z,9.70
2018-04-19T05:29:37.084Z,9.80
2018-04-19T05:32:04.621Z,9.90
2018-04-19T05:34:32.241Z,10.00
2018-04-19T05:36:59.781Z,10.10
2018-04-19T05:39:27.357Z,10.10
2018-04-19T05:41:54.934Z,10.20
2018-04-19T05:44:22.561Z,10.30
2018-04-19T05:46:50.097Z,10.40
2018-04-19T05:49:17.687Z,10.50
2018-04-19T05:51:45.232Z,10.60
2018-04-19T05:54:13.581Z,10.70
2018-04-19T05:56:41.132Z,10.80
2018-04-19T05:59:09.486Z,11.10
2018-04-19T06:01:37.096Z,11.00
2018-04-19T06:04:05.407Z,11.30
2018-04-19T06:06:33.046Z,11.30
2018-04-19T06:09:00.611Z,11.40
2018-04-19T06:11:28.199Z,11.50
2018-04-19T06:13:56.032Z,11.70
2018-04-19T06:16:23.694Z,11.80
2018-04-19T06:18:51.282Z,12.00
2018-04-19T06:21:18.892Z,12.10
2018-04-19T06:23:47.644Z,12.20
2018-04-19T06:26:15.873Z,12.30
2018-04-19T06:28:44.215Z,12.50
2018-04-19T06:31:11.849Z,12.70
2018-04-19T06:33:39.464Z,12.70
2018-04-19T06:36:07.125Z,12.90
2018-04-19T06:38:35.420Z,13.20
2018-04-19T06:41:02.960Z,13.10
2018-04-19T06:43:31.299Z,13.50
2018-04-19T06:45:58.892Z,13.40
2018-04-19T06:48:26.496Z,13.60
2018-04-19T06:50:54.038Z,13.90
2018-04-19T06:53:21.632Z,14.10
2018-04-19T06:55:49.157Z,14.20
2018-04-19T06:58:16.718Z,14.40
2018-04-19T07:00:44.276Z,14.50
2018-04-19T07:03:11.824Z,14.70
2018-04-19T07:05:39.362Z,14.80
2018-04-19T07:08:07.680Z,15.10
2018-04-19T07:10:35.202Z,15.10
2018-04-19T07:13:02.833Z,15.30
2018-04-19T07:15:30.404Z,15.40
2018-04-19T07:17:57.940Z,15.60
2018-04-19T07:20:25.569Z,15.80
2018-04-19T07:22:53.109Z,16.00
2018-04-19T07:25:20.700Z,16.20
2018-04-19T07:27:48.312Z,16.30
2018-04-19T07:30:15.866Z,16.50
2018-04-19T07:32:43.398Z,16.70
2018-04-19T07:35:10.971Z,16.80
2018-04-19T07:37:38.488Z,16.90
2018-04-19T07:40:06.088Z,17.20
2018-04-19T07:42:33.634Z,17.30
2018-04-19T07:45:01.218Z,17.70
2018-04-19T07:47:29.510Z,17.90
2018-04-19T07:49:57.106Z,17.90
2018-04-19T07:52:24.704Z,18.10
2018-04-19T07:54:52.336Z,18.20
2018-04-19T07:57:19.915Z,18.30
2018-04-19T07:59:47.448Z,18.40
2018-04-19T08:02:15.046Z,18.50
2018-04-19T08:04:42.600Z,18.60
2018-04-19T08:07:10.218Z,18.70
2018-04-19T08:09:37.778Z,18.80
2018-04-19T08:12:06.148Z,19.10
2018-04-19T08:14:33.692Z,19.00
2018-04-19T08:17:01.287Z,19.10
2018-04-19T08:19:28.816Z,19.30
2018-04-19T08:21:57.177Z,19.40
2018-04-19T08:24:24.689Z,19.30
2018-04-19T08:26:52.289Z,19.50
2018-04-19T08:29:19.828Z,19.40
2018-04-19T08:31:47.381Z,19.50
2018-04-19T08:34:14.924Z,19.60
2018-04-19T08:36:42.496Z,19.80
2018-04-19T08:39:10.052Z,19.80
2018-04-19T08:41:37.587Z,19.90
2018-04-19T08:44:05.166Z,20.00
2018-04-19T08:46:32.728Z,20.10
2018-04-19T08:49:00.346Z,20.10
2018-04-19T08:51:27.887Z,20.20
2018-04-19T08:53:55.712Z,20.40
2018-04-19T08:56:23.233Z,20.60
2018-04-19T08:58:50.822Z,20.70
2018-04-19T09:01:20.000Z,20.80
2018-04-19T09:03:47.552Z,20.80
2018-04-19T09:06:15.142Z,21.00
2018-04-19T09:08:42.833Z,21.10
2018-04-19T09:11:10.408Z,21.10
2018-04-19T09:13:38.110Z,21.20
2018-04-19T09:16:05.693Z,21.30
2018-04-19T09:18:33.238Z,21.40
2018-04-19T09:21:00.857Z,21.40
2018-04-19T09:23:28.413Z,21.40
2018-04-19T09:25:56.040Z,21.40
2018-04-19T09:28:23.582Z,21.50
2018-04-19T09:30:52.003Z,21.40
2018-04-19T09:33:19.547Z,21.50
2018-04-19T09:35:47.184Z,21.70
2018-04-19T09:38:15.532Z,21.80
2018-04-19T09:40:43.676Z,21.70
2018-04-19T09:43:11.249Z,21.80
2018-04-19T09:45:38.815Z,22.00
2018-04-19T09:48:06.360Z,22.10
2018-04-19T09:50:33.909Z,22.20
2018-04-19T09:53:01.982Z,22.20
2018-04-19T09:55:29.596Z,22.10
2018-04-19T09:58:09.039Z,22.30
2018-04-19T10:00:42.988Z,22.50
2018-04-19T10:03:16.222Z,22.50
2018-04-19T10:05:48.335Z,22.80
2018-04-19T10:08:15.871Z,22.60
2018-04-19T10:10:44.161Z,22.70
2018-04-19T10:13:11.722Z,22.70
2018-04-19T10:15:39.244Z,22.80
2018-04-19T10:18:06.783Z,23.10
2018-04-19T10:20:35.066Z,23.00
2018-04-19T10:23:02.652Z,23.00
2018-04-19T10:25:30.172Z,23.10
2018-04-19T10:27:57.725Z,23.30
2018-04-19T10:30:25.248Z,23.50
2018-04-19T10:32:53.561Z,23.60
2018-04-19T10:35:21.847Z,23.70
2018-04-19T10:37:49.497Z,23.70
2018-04-19T10:40:17.008Z,23.90
2018-04-19T10:42:44.555Z,23.70
2018-04-19T10:45:12.075Z,23.70
2018-04-19T10:47:39.628Z,23.80
2018-04-19T10:50:07.176Z,23.60
2018-04-19T10:52:34.760Z,23.60
2018-04-19T10:55:02.324Z,23.90
2018-04-19T10:57:29.926Z,23.80
2018-04-19T10:59:58.234Z,24.00
2018-04-19T11:02:25.768Z,23.90
2018-04-19T11:04:53.340Z,24.00
2018-04-19T11:07:20.889Z,24.10
2018-04-19T11:09:49.233Z,24.20
2018-04-19T11:12:16.771Z,24.10
2018-04-19T11:14:44.354Z,24.30
2018-04-19T11:17:12.471Z,24.40
2018-04-19T11:19:40.037Z,24.40
2018-04-19T11:22:07.571Z,24.40
2018-04-19T11:24:35.907Z,24.70
2018-04-19T11:27:03.923Z,24.60
2018-04-19T11:29:32.269Z,24.70
2018-04-19T11:31:59.794Z,24.70
2018-04-19T11:34:27.358Z,24.70
2018-04-19T11:36:54.927Z,24.70
2018-04-19T11:39:22.480Z,25.00
2018-04-19T11:41:50.007Z,25.20
2018-04-19T11:44:17.558Z,25.40
2018-04-19T11:46:45.876Z,25.20
2018-04-19T11:49:13.388Z,25.20
2018-04-19T11:51:40.941Z,25.10
2018-04-19T11:54:08.502Z,25.10
2018-04-19T11:56:36.059Z,25.40
2018-04-19T11:59:03.570Z,25.30
2018-04-19T12:01:31.124Z,25.30
2018-04-19T12:03:58.638Z,25.40
2018-04-19T12:06:26.187Z,25.60
2018-04-19T12:08:53.704Z,25.60
2018-04-19T12:11:21.264Z,25.40
2018-04-19T12:13:48.767Z,25.50
2018-04-19T12:16:16.326Z,25.50
2018-04-19T12:18:43.835Z,25.40
2018-04-19T12:21:11.376Z,25.20
2018-04-19T12:23:38.878Z,25.30
2018-04-19T12:26:06.452Z,25.40
2018-04-19T12:28:33.960Z,25.40
2018-04-19T12:31:01.484Z,25.60
2018-04-19T12:33:29.028Z,25.50
2018-04-19T12:35:56.533Z,25.70
2018-04-19T12:38:24.072Z,25.60
2018-04-19T12:40:52.359Z,25.60
2018-04-19T12:43:20.682Z,25.60
2018-04-19T12:45:48.191Z,25.50
2018-04-19T12:48:15.778Z,25.60
2018-04-19T12:50:43.299Z,25.80
2018-04-19T12:53:10.843Z,25.80
2018-04-19T12:55:38.361Z,25.80
2018-04-19T12:58:06.672Z,26.00
2018-04-19T13:00:34.192Z,26.00
2018-04-19T13:03:01.736Z,25.80
2018-04-19T13:05:29.244Z,25.70
2018-04-19T13:07:56.822Z,26.00
2018-04-19T13:10:24.396Z,25.90
2018-04-19T13:12:51.898Z,26.00
2018-04-19T13:15:19.420Z,25.90
2018-04-19T13:17:47.694Z,26.30
2018-04-19T13:20:16.022Z,26.40
2018-04-19T13:22:43.534Z,26.30
2018-04-19T13:25:11.836Z,26.20
2018-04-19T13:27:39.372Z,26.10
2018-04-19T13:30:06.945Z,26.30
2018-04-19T13:32:34.475Z,26.00
2018-04-19T13:35:02.024Z,25.90
2018-04-19T13:37:29.523Z,25.90
2018-04-19T13:39:57.076Z,25.90
2018-04-19T13:42:24.603Z,25.90
2018-04-19T13:44:52.985Z,26.10
2018-04-19T13:47:20.512Z,26.00
2018-04-19T13:49:48.059Z,26.10
2018-04-19T13:52:15.584Z,26.20
2018-04-19T13:54:43.919Z,26.30
2018-04-19T13:57:11.424Z,26.20
2018-04-19T13:59:38.936Z,26.40
2018-04-19T14:02:06.525Z,26.50
2018-04-19T14:04:34.005Z,26.50
2018-04-19T14:07:01.570Z,26.30
2018-04-19T14:09:29.076Z,26.10
2018-04-19T14:11:56.619Z,25.90
2018-04-19T14:14:24.900Z,26.00
2018-04-19T14:16:52.444Z,26.00
2018-04-19T14:19:19.948Z,26.00
2018-04-19T14:21:47.498Z,26.00
2018-04-19T14:24:15.006Z,25.90
2018-04-19T14:26:42.549Z,26.00
2018-04-19T14:29:10.070Z,26.00
2018-04-19T14:31:38.062Z,25.80
2018-04-19T14:34:06.339Z,26.00
2018-04-19T14:36:33.871Z,26.00
2018-04-19T14:39:01.379Z,26.00
2018-04-19T14:41:28.939Z,26.10
2018-04-19T14:43:56.446Z,25.80
2018-04-19T14:46:23.956Z,25.70
2018-04-19T14:48:51.488Z,25.90
2018-04-19T14:51:18.989Z,25.70
2018-04-19T14:53:46.532Z,25.60
2018-04-19T14:56:14.150Z,25.70
2018-04-19T14:58:41.692Z,25.80
2018-04-19T15:01:09.200Z,25.70
2018-04-19T15:03:36.740Z,25.80
2018-04-19T15:06:04.228Z,25.80
2018-04-19T15:08:31.764Z,25.70
2018-04-19T15:10:59.284Z,25.80
2018-04-19T15:13:26.834Z,25.60
2018-04-19T15:15:54.338Z,25.60
2018-04-19T15:18:21.883Z,25.60
2018-04-19T15:20:49.391Z,25.40
2018-04-19T15:23:16.947Z,25.40
2018-04-19T15:25:44.503Z,25.40
2018-04-19T15:28:12.077Z,25.40
2018-04-19T15:30:39.597Z,25.40
2018-04-19T15:33:07.924Z,25.20
2018-04-19T15:35:35.434Z,25.20
2018-04-19T15:38:02.932Z,25.10
2018-04-19T15:40:30.483Z,25.00
2018-04-19T15:42:58.000Z,25.00
2018-04-19T15:45:25.531Z,25.00
2018-04-19T15:47:53.321Z,24.90
2018-04-19T15:50:21.232Z,24.90
2018-04-19T15:52:48.812Z,24.80
2018-04-19T15:55:16.360Z,24.70
2018-04-19T15:57:43.880Z,24.80
2018-04-19T16:00:11.428Z,24.70
2018-04-19T16:02:38.952Z,24.70
2018-04-19T16:05:06.496Z,24.70
2018-04-19T16:07:34.013Z,24.60
2018-04-19T16:10:01.579Z,24.50
2018-04-19T16:12:29.098Z,24.50
2018-04-19T16:14:57.404Z,24.30
2018-04-19T16:17:24.917Z,24.30
2018-04-19T16:19:52.467Z,24.30
2018-04-19T16:22:19.984Z,24.20
2018-04-19T16:24:47.600Z,24.10
2018-04-19T16:27:15.079Z,24.10
2018-04-19T16:29:42.658Z,24.00
2018-04-19T16:32:10.178Z,23.90
2018-04-19T16:34:38.555Z,23.80
2018-04-19T16:37:06.098Z,23.80
2018-04-19T16:39:33.798Z,23.70
2018-04-19T16:42:01.343Z,23.60
2018-04-19T16:44:29.592Z,23.50
2018-04-19T16:46:57.127Z,23.50
2018-04-19T16:49:24.634Z,23.40
2018-04-19T16:51:52.171Z,23.40
2018-04-19T16:54:19.688Z,23.30
2018-04-19T16:56:47.220Z,23.20
2018-04-19T16:59:14.735Z,23.20
2018-04-19T17:01:43.050Z,23.00
2018-04-19T17:04:10.568Z,23.00
2018-04-19T17:06:38.910Z,22.80
2018-04-19T17:09:06.924Z,22.80
2018-04-19T17:11:34.499Z,22.70
2018-04-19T17:14:02.011Z,22.60
2018-04-19T17:16:29.584Z,22.60
2018-04-19T17:18:57.108Z,22.50
2018-04-19T17:21:24.622Z,22.30
2018-04-19T17:23:52.163Z,22.20
2018-04-19T17:26:20.460Z,22.00
2018-04-19T17:28:48.014Z,21.90
2018-04-19T17:31:15.537Z,21.80
2018-04-19T17:33:43.096Z,21.70
2018-04-19T17:36:10.620Z,21.60
2018-04-19T17:38:38.178Z,21.50
2018-04-19T17:41:05.679Z,21.30
2018-04-19T17:43:33.241Z,21.20
2018-04-19T17:46:00.762Z,21.10
2018-04-19T17:48:28.297Z,20.90
2018-04-19T17:50:55.810Z,20.80
2018-04-19T17:53:23.351Z,20.70
2018-04-19T17:55:50.858Z,20.50
2018-04-19T17:58:19.164Z,20.30
2018-04-19T18:00:46.708Z,20.30
2018-04-19T18:03:14.233Z,20.20
2018-04-19T18:05:41.784Z,20.10
2018-04-19T18:08:09.340Z,20.00
2018-04-19T18:10:36.839Z,19.80
2018-04-19T18:13:04.339Z,19.70
2018-04-19T18:15:31.899Z,19.50
2018-04-19T18:17:59.408Z,19.30
2018-04-19T18:20:27.716Z,19.10
2018-04-19T18:22:55.226Z,19.00
2018-04-19T18:25:22.767Z,19.00
2018-04-19T18:27:50.309Z,18.80
2018-04-19T18:30:17.836Z,18.70
2018-04-19T18:32:45.355Z,18.60
2018-04-19T18:35:12.908Z,18.60
2018-04-19T18:37:40.407Z,18.50
2018-04-19T18:40:07.939Z,18.40
2018-04-19T18:42:35.468Z,18.40
2018-04-19T18:45:03.008Z,18.30
2018-04-19T18:47:30.518Z,18.20
2018-04-19T18:49:58.814Z,18.00
2018-04-19T18:52:27.087Z,18.00
2018-04-19T18:54:55.410Z,17.90
2018-04-19T18:57:22.931Z,17.90
2018-04-19T18:59:50.441Z,17.90
2018-04-19T19:02:17.973Z,17.80
2018-04-19T19:04:45.492Z,17.70
2018-04-19T19:07:13.031Z,17.60
2018-04-19T19:09:40.536Z,17.60
2018-04-19T19:12:08.077Z,17.50
2018-04-19T19:14:35.587Z,17.40
2018-04-19T19:17:14.985Z,17.40
2018-04-19T19:19:54.209Z,17.30
2018-04-19T19:22:21.752Z,17.20
2018-04-19T19:24:50.044Z,17.20
2018-04-19T19:27:18.356Z,17.10
2018-04-19T19:29:45.869Z,17.10
2018-04-19T19:32:13.440Z,17.10
2018-04-19T19:34:40.929Z,17.10
2018-04-19T19:37:08.468Z,17.00
2018-04-19T19:39:35.984Z,17.00
2018-04-19T19:42:03.531Z,16.90
2018-04-19T19:44:31.051Z,16.90
2018-04-19T19:46:58.601Z,16.80
2018-04-19T19:49:26.116Z,16.80
2018-04-19T19:51:53.656Z,16.70
2018-04-19T19:54:21.157Z,16.70
2018-04-19T19:56:48.703Z,16.60
2018-04-19T19:59:16.218Z,16.60
2018-04-19T20:01:43.770Z,16.50
2018-04-19T20:04:11.309Z,16.50
2018-04-19T20:06:38.844Z,16.40
2018-04-19T20:09:06.349Z,16.30
2018-04-19T20:11:33.898Z,16.20
2018-04-19T20:14:01.402Z,16.10
2018-04-19T20:16:28.947Z,16.10
2018-04-19T20:18:56.460Z,16.00
2018-04-19T20:21:24.012Z,16.00
2018-04-19T20:23:51.524Z,16.00
2018-04-19T20:26:19.059Z,15.90
2018-04-19T20:28:46.612Z,15.80
2018-04-19T20:31:14.123Z,15.80
2018-04-19T20:33:41.667Z,15.80
2018-04-19T20:36:09.167Z,15.70
2018-04-19T20:38:36.716Z,15.70
2018-04-19T20:41:04.227Z,15.60
2018-04-19T20:43:31.775Z,15.60
2018-04-19T20:45:59.289Z,15.50
2018-04-19T20:48:26.823Z,15.50
2018-04-19T20:50:54.333Z,15.40
2018-04-19T20:53:21.877Z,15.30
2018-04-19T20:55:49.383Z,15.30
2018-04-19T20:58:16.949Z,15.30
2018-04-19T21:00:44.447Z,15.30
2018-04-19T21:03:12.002Z,15.30
2018-04-19T21:05:39.509Z,15.30
2018-04-19T21:08:07.055Z,15.20
2018-04-19T21:10:35.336Z,15.10
2018-04-19T21:13:02.877Z,15.10
2018-04-19T21:15:30.382Z,15.10
2018-04-19T21:17:57.924Z,15.10
2018-04-19T21:20:25.460Z,15.10
2018-04-19T21:22:52.964Z,15.10
2018-04-19T21:25:20.515Z,15.00
2018-04-19T21:27:48.021Z,15.00
2018-04-19T21:30:15.566Z,14.90
2018-04-19T21:32:43.078Z,14.90
2018-04-19T21:35:10.623Z,14.80
2018-04-19T21:37:38.731Z,14.80
2018-04-19T21:40:06.274Z,14.80
2018-04-19T21:42:33.780Z,14.70
2018-04-19T21:45:01.326Z,14.60
2018-04-19T21:47:28.901Z,14.60
2018-04-19T21:49:56.422Z,14.50
2018-04-19T21:52:23.931Z,14.40
2018-04-19T21:54:51.491Z,14.30
2018-04-19T21:57:19.019Z,14.20
2018-04-19T21:59:46.520Z,14.20
2018-04-19T22:02:14.828Z,14.10
2018-04-19T22:04:42.341Z,14.00
2018-04-19T22:07:09.897Z,14.00
2018-04-19T22:09:37.403Z,14.00
2018-04-19T22:12:04.939Z,14.00
2018-04-19T22:14:32.433Z,14.00
2018-04-19T22:16:59.967Z,13.90
2018-04-19T22:19:27.482Z,13.90
2018-04-19T22:21:55.015Z,13.80
2018-04-19T22:24:22.527Z,13.80
2018-04-19T22:26:50.823Z,13.60
2018-04-19T22:29:18.348Z,13.60
2018-04-19T22:31:45.900Z,13.60
2018-04-19T22:34:13.408Z,13.60
2018-04-19T22:36:40.943Z,13.60
2018-04-19T22:39:09.036Z,13.50
2018-04-19T22:41:36.575Z,13.50
2018-04-19T22:44:04.857Z,13.40
2018-04-19T22:46:32.403Z,13.30
2018-04-19T22:48:59.915Z,13.30
2018-04-19T22:51:27.425Z,13.30
2018-04-19T22:53:55.731Z,13.20
2018-04-19T22:56:23.231Z,13.10
2018-04-19T22:58:50.769Z,13.10
2018-04-19T23:01:18.276Z,13.10
2018-04-19T23:03:46.584Z,13.10
2018-04-19T23:06:14.103Z,13.00
2018-04-19T23:08:41.636Z,13.10
2018-04-19T23:11:09.133Z,13.00
2018-04-19T23:13:37.436Z,13.00
2018-04-19T23:16:04.943Z,12.90
2018-04-19T23:18:32.482Z,13.00
2018-04-19T23:20:59.991Z,12.90
2018-04-19T23:23:28.311Z,12.90
2018-04-19T23:25:55.823Z,12.80
2018-04-19T23:28:24.117Z,12.80
2018-04-19T23:30:51.628Z,12.80
2018-04-19T23:33:19.435Z,12.80
2018-04-19T23:35:46.949Z,12.80
2018-04-19T23:38:14.444Z,12.70
2018-04-19T23:40:42.753Z,12.70
2018-04-19T23:43:10.259Z,12.70
2018-04-19T23:45:37.796Z,12.70
2018-04-19T23:48:05.287Z,12.70
2018-04-19T23:50:32.826Z,12.70
2018-04-19T23:53:00.323Z,12.60
2018-04-19T23:55:27.893Z,12.60
2018-04-19T23:57:55.395Z,12.60
